Time;durP1;ratioP1;P1;durP2;ratioP2;P2;SDS_P1;SDS_P2;PMS_P1;PMS_P2;Temp;Humidity;BMP_temperature;BMP_pressure;BME280_temperature;BME280_humidity;BME280_pressure;Samples;Min_cycle;Max_cycle;Signal;HPM_P1;HPM_P2
2023/03/26 00:01:53;;;;;;;8.77;5.03;;;12.40;99.90;;;;;;4953275;28;20476;-94
2023/03/26 00:04:20;;;;;;;6.85;4.43;;;12.50;99.90;;;;;;4953740;28;20085;-89
2023/03/26 00:06:47;;;;;;;9.00;4.47;;;12.50;99.90;;;;;;4953223;28;20031;-91
2023/03/26 00:09:14;;;;;;;7.03;4.57;;;12.40;99.90;;;;;;4953260;28;20532;-91
2023/03/26 00:11:41;;;;;;;7.60;4.35;;;12.40;99.90;;;;;;4952844;28;20443;-91
2023/03/26 00:14:08;;;;;;;6.75;4.63;;;12.40;99.90;;;;;;4953367;28;20028;-90
2023/03/26 00:16:34;;;;;;;7.90;4.85;;;12.50;99.90;;;;;;4952827;28;20038;-90
2023/03/26 00:19:00;;;;;;;10.00;5.47;;;12.60;99.90;;;;;;4949782;28;20028;-90
2023/03/26 00:21:29;;;;;;;7.13;4.70;;;12.30;99.90;;;;;;4953173;28;20019;-91
2023/03/26 00:23:57;;;;;;;7.20;4.50;;;12.30;99.90;;;;;;4953562;28;20485;-90
2023/03/26 00:26:23;;;;;;;7.78;4.85;;;12.30;99.90;;;;;;4953100;28;20059;-90
2023/03/26 00:28:49;;;;;;;11.60;6.00;;;12.20;99.90;;;;;;4952955;28;20546;-91
2023/03/26 00:31:16;;;;;;;9.45;6.30;;;12.10;99.90;;;;;;4952759;28;20093;-90
2023/03/26 00:33:43;;;;;;;11.93;5.78;;;11.90;99.90;;;;;;4953028;28;20039;-90
2023/03/26 00:36:14;;;;;;;8.73;5.80;;;12.00;99.90;;;;;;4953195;28;20023;-90
2023/03/26 00:38:41;;;;;;;8.93;5.30;;;11.90;99.90;;;;;;4952825;28;20496;-90
2023/03/26 00:41:16;;;;;;;7.38;4.82;;;11.90;99.90;;;;;;4952892;28;20145;-90
2023/03/26 00:43:42;;;;;;;10.10;5.60;;;12.00;99.90;;;;;;4952924;28;20453;-90
2023/03/26 00:46:08;;;;;;;9.57;5.93;;;12.00;99.90;;;;;;4952490;28;20058;-91
2023/03/26 00:48:37;;;;;;;9.48;5.60;;;11.90;99.90;;;;;;4952856;28;20055;-91
2023/03/26 00:51:04;;;;;;;7.95;5.60;;;11.90;99.90;;;;;;4952699;28;20448;-90
2023/03/26 00:53:30;;;;;;;8.00;5.43;;;11.90;99.90;;;;;;4952805;28;20031;-90
2023/03/26 00:55:59;;;;;;;9.13;5.65;;;11.80;99.90;;;;;;4952579;28;20103;-90
2023/03/26 00:58:25;;;;;;;9.73;5.47;;;11.70;99.90;;;;;;4952508;28;20485;-90
2023/03/26 01:00:56;;;;;;;9.55;4.95;;;11.80;99.90;;;;;;4952123;28;20039;-90
2023/03/26 01:03:28;;;;;;;8.40;4.80;;;11.90;99.90;;;;;;4952535;28;20023;-90
2023/03/26 01:06:03;;;;;;;9.15;4.75;;;11.90;99.90;;;;;;4952335;28;20181;-90
2023/03/26 01:08:53;;;;;;;9.18;4.93;;;11.90;99.90;;;;;;4952476;28;20027;-91
2023/03/26 01:11:22;;;;;;;6.90;4.35;;;11.90;99.90;;;;;;4951896;28;20034;-91
2023/03/26 01:14:08;;;;;;;6.85;4.72;;;12.10;99.90;;;;;;4951708;28;20038;-90
2023/03/26 01:16:40;;;;;;;7.22;4.00;;;12.00;99.90;;;;;;4952384;28;20043;-90
2023/03/26 01:19:15;;;;;;;6.00;3.40;;;12.10;99.90;;;;;;4952115;28;20050;-91
2023/03/26 01:21:41;;;;;;;6.68;3.35;;;12.30;99.90;;;;;;4952710;28;20098;-90
2023/03/26 01:24:08;;;;;;;6.18;3.00;;;12.30;99.90;;;;;;4952390;28;20511;-91
2023/03/26 01:26:57;;;;;;;5.85;2.63;;;12.40;99.90;;;;;;4940965;28;20083;-91
2023/03/26 01:29:47;;;;;;;5.28;2.88;;;12.50;99.90;;;;;;4932802;29;20053;-90
2023/03/26 01:32:47;;;;;;;6.93;3.30;;;12.50;99.90;;;;;;5030219;28;20041;-90
2023/03/26 01:35:23;;;;;;;7.65;3.53;;;12.40;99.90;;;;;;5030579;28;20025;-91
2023/03/26 01:38:17;;;;;;;6.13;3.30;;;12.40;99.90;;;;;;5030673;28;20052;-91
2023/03/26 01:40:45;;;;;;;6.20;2.58;;;12.40;99.90;;;;;;5030561;28;20038;-90
2023/03/26 01:43:31;;;;;;;4.22;2.50;;;12.50;99.90;;;;;;5029983;28;20116;-90
2023/03/26 01:46:00;;;;;;;6.35;2.45;;;12.50;99.90;;;;;;5030785;28;20033;-91
2023/03/26 01:48:35;;;;;;;4.63;2.70;;;12.60;99.90;;;;;;5030386;28;20029;-91
2023/03/26 01:51:01;;;;;;;7.20;2.63;;;12.60;99.90;;;;;;5030238;28;20076;-90
2023/03/26 01:53:27;;;;;;;4.70;2.30;;;12.60;99.90;;;;;;5030963;28;20057;-91
2023/03/26 01:56:19;;;;;;;5.40;2.47;;;12.60;99.90;;;;;;5030499;28;20037;-91
2023/03/26 01:59:06;;;;;;;5.43;2.70;;;12.60;99.90;;;;;;4971093;28;20031;-90
2023/03/26 02:01:56;;;;;;;5.97;2.63;;;12.50;99.90;;;;;;4971431;28;20090;-90
2023/03/26 02:04:31;;;;;;;4.93;2.40;;;12.50;99.90;;;;;;4971498;28;20425;-91
2023/03/26 02:07:23;;;;;;;5.15;2.35;;;12.50;99.90;;;;;;4971546;28;20033;-91
2023/03/26 02:09:54;;;;;;;4.60;2.17;;;12.50;99.90;;;;;;4912656;28;20597;-91
2023/03/26 02:12:21;;;;;;;5.43;2.30;;;12.50;99.90;;;;;;4892492;29;20123;-90
2023/03/26 02:14:47;;;;;;;6.05;2.20;;;12.60;99.90;;;;;;4892534;29;20080;-91
2023/03/26 02:17:13;;;;;;;4.47;2.13;;;12.70;99.90;;;;;;4892363;29;20037;-90
2023/03/26 02:19:41;;;;;;;5.45;2.00;;;12.70;99.90;;;;;;4892640;29;20542;-90
2023/03/26 02:22:10;;;;;;;2.90;1.67;;;12.80;99.90;;;;;;4895267;29;20179;-90
2023/03/26 02:24:37;;;;;;;4.07;1.98;;;12.80;99.90;;;;;;4895785;29;20054;-90
2023/03/26 02:27:06;;;;;;;5.15;2.13;;;12.70;99.90;;;;;;4881180;28;20107;-90
2023/03/26 02:29:38;;;;;;;3.90;1.98;;;12.60;99.90;;;;;;4876888;29;20107;-91
2023/03/26 02:32:06;;;;;;;4.50;1.80;;;12.50;99.90;;;;;;4876887;29;20668;-90
2023/03/26 02:34:32;;;;;;;5.03;1.92;;;12.60;99.90;;;;;;4877771;28;20041;-90
2023/03/26 02:36:58;;;;;;;5.13;1.95;;;12.60;99.90;;;;;;4935616;29;20028;-90
2023/03/26 02:39:24;;;;;;;3.10;1.80;;;12.70;99.90;;;;;;4935428;29;20034;-91
2023/03/26 02:41:49;;;;;;;6.18;1.85;;;12.70;99.90;;;;;;4935152;29;20024;-91
2023/03/26 02:44:15;;;;;;;4.25;1.90;;;12.80;99.90;;;;;;4935820;29;20028;-91
2023/03/26 02:46:40;;;;;;;3.95;1.67;;;12.80;99.90;;;;;;4954085;29;20035;-90
2023/03/26 02:49:07;;;;;;;7.25;1.90;;;12.80;99.90;;;;;;4954259;28;20028;-90
2023/03/26 02:51:36;;;;;;;5.80;1.70;;;12.80;99.90;;;;;;4954262;28;20110;-90
2023/03/26 02:54:02;;;;;;;5.13;1.60;;;12.70;99.90;;;;;;4955079;28;20055;-90
2023/03/26 02:56:28;;;;;;;4.75;1.90;;;12.70;99.90;;;;;;4954083;28;20061;-90
2023/03/26 02:58:53;;;;;;;4.88;1.50;;;12.70;99.90;;;;;;4954243;28;20386;-90
2023/03/26 03:01:19;;;;;;;4.60;1.73;;;12.70;99.90;;;;;;4954261;28;20061;-90
2023/03/26 03:03:48;;;;;;;3.08;1.50;;;12.70;99.90;;;;;;4954756;28;20024;-90
2023/03/26 03:06:18;;;;;;;5.10;1.70;;;12.70;99.90;;;;;;4954173;28;20097;-91
2023/03/26 03:08:45;;;;;;;4.97;1.60;;;12.60;99.90;;;;;;4954654;28;20085;-91
2023/03/26 03:11:14;;;;;;;4.53;1.65;;;12.60;99.90;;;;;;4953767;28;20027;-89
2023/03/26 03:13:40;;;;;;;4.90;1.70;;;12.50;99.90;;;;;;4954395;28;20531;-89
2023/03/26 03:16:06;;;;;;;3.95;1.48;;;12.50;99.90;;;;;;4954176;28;20027;-89
2023/03/26 03:18:32;;;;;;;3.85;1.60;;;12.60;99.90;;;;;;4953908;28;20042;-89
2023/03/26 03:20:57;;;;;;;5.95;1.73;;;12.60;99.90;;;;;;4954530;28;20028;-89
2023/03/26 03:23:23;;;;;;;4.95;1.77;;;12.60;99.90;;;;;;4954194;28;20044;-88
2023/03/26 03:25:51;;;;;;;4.70;1.73;;;12.40;99.90;;;;;;4948851;28;20044;-89
2023/03/26 03:28:17;;;;;;;4.43;1.60;;;12.50;99.90;;;;;;4935278;29;20031;-88
2023/03/26 03:30:43;;;;;;;5.22;1.50;;;12.50;99.90;;;;;;4934971;29;20113;-89
2023/03/26 03:33:09;;;;;;;3.63;1.77;;;12.40;99.90;;;;;;4934902;29;20036;-89
2023/03/26 03:35:36;;;;;;;3.42;1.38;;;12.40;99.90;;;;;;4935059;29;20058;-89
2023/03/26 03:38:02;;;;;;;5.25;2.00;;;12.40;99.90;;;;;;4935021;29;20509;-89
2023/03/26 03:40:28;;;;;;;4.32;1.80;;;12.50;99.90;;;;;;4934286;29;20027;-89
2023/03/26 03:42:53;;;;;;;4.47;1.60;;;12.40;99.90;;;;;;4934828;29;20038;-89
2023/03/26 03:45:19;;;;;;;3.60;1.50;;;12.20;99.90;;;;;;4941057;29;20038;-89
2023/03/26 03:47:45;;;;;;;6.97;1.73;;;12.30;99.90;;;;;;4953700;28;20378;-88
2023/03/26 03:50:10;;;;;;;6.22;2.10;;;12.20;99.90;;;;;;4954089;28;20023;-89
2023/03/26 03:52:36;;;;;;;3.00;1.48;;;12.30;99.90;;;;;;4953818;28;20513;-89
2023/03/26 03:55:02;;;;;;;3.30;1.50;;;12.20;99.90;;;;;;4951941;28;20494;-89
2023/03/26 03:57:28;;;;;;;3.13;1.58;;;12.20;99.90;;;;;;4954082;28;20058;-89
2023/03/26 03:59:57;;;;;;;3.97;1.73;;;12.30;99.90;;;;;;4953492;28;20030;-88
2023/03/26 04:02:29;;;;;;;4.05;1.58;;;12.20;99.90;;;;;;4953350;28;20498;-89
2023/03/26 04:04:56;;;;;;;2.78;1.42;;;12.30;99.90;;;;;;4953333;28;20493;-88
2023/03/26 04:07:26;;;;;;;2.50;1.70;;;12.30;99.90;;;;;;4953896;28;20031;-88
2023/03/26 04:09:52;;;;;;;3.97;1.98;;;12.20;99.90;;;;;;4953007;28;20027;-88
2023/03/26 04:12:18;;;;;;;3.38;1.50;;;12.20;99.90;;;;;;4953077;28;20525;-88
2023/03/26 04:14:44;;;;;;;5.20;1.88;;;12.20;99.90;;;;;;4953668;28;20023;-89
2023/03/26 04:17:12;;;;;;;2.90;1.80;;;12.20;99.90;;;;;;4953067;28;20128;-89
2023/03/26 04:19:38;;;;;;;7.28;1.98;;;12.20;99.90;;;;;;4953232;28;20429;-88
2023/03/26 04:22:04;;;;;;;3.78;1.40;;;12.20;99.90;;;;;;4953262;28;20558;-88
2023/03/26 04:24:32;;;;;;;4.22;1.80;;;12.20;99.90;;;;;;4952703;28;20027;-89
2023/03/26 04:27:02;;;;;;;3.70;1.90;;;12.10;99.90;;;;;;4938788;28;20590;-88
2023/03/26 04:29:33;;;;;;;2.50;1.60;;;12.20;99.90;;;;;;4933863;29;20301;-89
2023/03/26 04:32:05;;;;;;;4.50;1.50;;;12.20;99.90;;;;;;4934359;29;20035;-88
2023/03/26 04:34:32;;;;;;;3.50;1.58;;;12.30;99.90;;;;;;4933724;29;20031;-88
2023/03/26 04:37:00;;;;;;;3.78;1.73;;;12.30;99.90;;;;;;4933475;29;20370;-88
2023/03/26 04:39:29;;;;;;;4.43;1.65;;;12.40;99.90;;;;;;4933832;29;20085;-88
2023/03/26 04:41:56;;;;;;;4.40;1.40;;;12.40;99.90;;;;;;4933822;29;20032;-88
2023/03/26 04:44:22;;;;;;;2.65;1.50;;;12.50;99.90;;;;;;4932728;29;20118;-87
2023/03/26 04:46:49;;;;;;;4.78;1.75;;;12.60;99.90;;;;;;4952875;28;20073;-88
2023/03/26 04:49:14;;;;;;;3.75;1.58;;;12.80;99.90;;;;;;4953055;28;20027;-88
2023/03/26 04:51:40;;;;;;;2.30;1.45;;;12.80;99.90;;;;;;4952201;28;20110;-88
2023/03/26 04:54:07;;;;;;;2.63;1.30;;;12.90;99.90;;;;;;4952646;28;20028;-88
2023/03/26 04:56:50;;;;;;;3.70;1.80;;;13.00;99.90;;;;;;4952421;28;20023;-89
2023/03/26 04:59:28;;;;;;;5.35;1.65;;;13.00;99.90;;;;;;4952545;28;20047;-88
2023/03/26 05:01:58;;;;;;;5.47;1.70;;;13.00;99.90;;;;;;4952574;28;20023;-89
2023/03/26 05:04:25;;;;;;;4.15;1.40;;;13.00;99.90;;;;;;4952408;28;20039;-87
2023/03/26 05:06:52;;;;;;;5.28;1.63;;;13.00;99.90;;;;;;4952055;28;20024;-88
2023/03/26 05:09:18;;;;;;;4.90;1.63;;;13.00;99.90;;;;;;4952743;28;20093;-88
2023/03/26 05:11:44;;;;;;;3.10;1.35;;;12.90;99.90;;;;;;4951539;28;20129;-90
2023/03/26 05:14:09;;;;;;;3.42;1.52;;;12.80;99.90;;;;;;4952214;28;20467;-90
2023/03/26 05:16:36;;;;;;;3.35;1.60;;;12.80;99.90;;;;;;4952270;28;20088;-90
2023/03/26 05:19:01;;;;;;;3.38;1.80;;;12.70;99.90;;;;;;4952923;28;20397;-90
2023/03/26 05:21:27;;;;;;;5.40;1.92;;;12.70;99.90;;;;;;4952090;28;20027;-90
2023/03/26 05:23:53;;;;;;;8.30;1.92;;;12.60;99.90;;;;;;4952241;28;20036;-90
2023/03/26 05:26:19;;;;;;;5.38;1.75;;;12.30;99.90;;;;;;4943757;28;20058;-90
2023/03/26 05:28:44;;;;;;;5.97;1.77;;;12.10;99.90;;;;;;4933398;29;20028;-90
2023/03/26 05:31:10;;;;;;;6.32;2.25;;;11.70;99.90;;;;;;4933121;29;20027;-91
2023/03/26 05:33:36;;;;;;;7.28;1.92;;;11.60;99.90;;;;;;4933391;29;20050;-90
2023/03/26 05:36:03;;;;;;;6.93;1.80;;;11.70;99.90;;;;;;4932560;29;20019;-90
2023/03/26 05:38:30;;;;;;;5.13;1.90;;;11.70;99.90;;;;;;4932954;29;21036;-90
2023/03/26 05:41:00;;;;;;;7.90;1.95;;;11.70;99.90;;;;;;4932890;29;20020;-90
2023/03/26 05:43:27;;;;;;;6.25;2.72;;;11.80;99.90;;;;;;4933039;29;20031;-91
2023/03/26 05:45:53;;;;;;;6.45;3.50;;;11.80;99.90;;;;;;4945514;29;20054;-90
2023/03/26 05:48:20;;;;;;;6.72;2.30;;;11.80;99.90;;;;;;4952514;28;20444;-90
2023/03/26 05:50:51;;;;;;;8.45;2.60;;;11.80;99.90;;;;;;4952000;28;20107;-90
2023/03/26 05:53:17;;;;;;;5.65;2.97;;;11.80;99.90;;;;;;4952096;28;20035;-91
2023/03/26 05:55:44;;;;;;;7.07;2.30;;;11.80;99.90;;;;;;4951565;28;20081;-90
2023/03/26 05:58:11;;;;;;;5.50;2.10;;;11.80;99.90;;;;;;4952107;28;20420;-90
2023/03/26 06:00:37;;;;;;;9.63;2.20;;;11.80;99.90;;;;;;4952040;28;20056;-90
2023/03/26 06:03:04;;;;;;;6.75;2.13;;;11.80;99.90;;;;;;4951849;28;20024;-90
2023/03/26 06:05:36;;;;;;;6.13;2.58;;;11.90;99.90;;;;;;4951672;28;20088;-90
2023/03/26 06:08:02;;;;;;;5.53;2.33;;;11.80;99.90;;;;;;4951689;28;20035;-90
2023/03/26 06:10:29;;;;;;;5.78;2.15;;;11.90;99.90;;;;;;4951856;28;20133;-90
2023/03/26 06:12:55;;;;;;;7.28;2.17;;;11.90;99.90;;;;;;4951709;28;20496;-90
2023/03/26 06:15:20;;;;;;;10.63;2.45;;;11.90;99.90;;;;;;4952325;28;20030;-90
2023/03/26 06:17:47;;;;;;;5.28;2.25;;;12.00;99.90;;;;;;4951836;28;20028;-90
2023/03/26 06:20:13;;;;;;;5.63;2.05;;;12.00;99.90;;;;;;4951551;28;20028;-90
2023/03/26 06:22:38;;;;;;;7.57;2.53;;;12.00;99.90;;;;;;4952266;28;20027;-90
2023/03/26 06:25:05;;;;;;;8.38;3.53;;;12.00;99.90;;;;;;4950380;28;20114;-90
2023/03/26 06:27:30;;;;;;;7.47;2.63;;;11.90;99.90;;;;;;4950963;28;20047;-90
2023/03/26 06:29:56;;;;;;;6.25;2.17;;;11.90;99.90;;;;;;4950964;28;20461;-91
2023/03/26 06:32:22;;;;;;;8.98;2.47;;;11.90;99.90;;;;;;4951264;28;20039;-89
2023/03/26 06:34:47;;;;;;;6.82;2.65;;;11.90;99.90;;;;;;4951605;28;20035;-90
2023/03/26 06:37:15;;;;;;;8.35;2.13;;;11.80;99.90;;;;;;4951149;28;20038;-91
2023/03/26 06:39:41;;;;;;;6.22;2.30;;;11.80;99.90;;;;;;4950446;28;20062;-90
2023/03/26 06:42:06;;;;;;;10.23;2.67;;;11.90;99.90;;;;;;4951641;28;20027;-90
2023/03/26 06:44:33;;;;;;;5.68;2.13;;;12.00;99.90;;;;;;4950856;28;20024;-89
2023/03/26 06:46:59;;;;;;;4.43;1.98;;;12.00;99.90;;;;;;4951481;28;20432;-90
2023/03/26 06:49:24;;;;;;;8.73;2.72;;;11.90;99.90;;;;;;4950762;28;20084;-90
2023/03/26 06:51:50;;;;;;;7.97;2.40;;;11.80;99.90;;;;;;4951445;28;20039;-90
2023/03/26 06:54:17;;;;;;;4.70;1.70;;;11.90;99.90;;;;;;4952044;28;20030;-90
2023/03/26 06:56:43;;;;;;;5.93;2.10;;;11.90;99.90;;;;;;4951223;28;20081;-90
2023/03/26 06:59:09;;;;;;;5.10;2.15;;;11.70;99.90;;;;;;4951483;28;20027;-90
2023/03/26 07:01:35;;;;;;;5.80;2.35;;;11.60;99.90;;;;;;4950877;28;20065;-89
2023/03/26 07:04:01;;;;;;;10.32;3.28;;;11.60;99.90;;;;;;4950384;28;20039;-90
2023/03/26 07:06:26;;;;;;;11.02;3.50;;;11.60;99.90;;;;;;4950753;28;20047;-90
2023/03/26 07:08:54;;;;;;;13.88;3.40;;;11.60;99.90;;;;;;4952795;28;20058;-90
2023/03/26 07:11:23;;;;;;;8.95;3.55;;;11.70;99.90;;;;;;4954062;28;20055;-90
2023/03/26 07:13:49;;;;;;;8.85;3.35;;;11.60;99.90;;;;;;4954174;28;20085;-90
2023/03/26 07:16:15;;;;;;;10.32;3.03;;;11.60;99.90;;;;;;4954535;28;20032;-88
2023/03/26 07:18:41;;;;;;;11.32;3.10;;;11.60;99.90;;;;;;4953871;28;20023;-90
2023/03/26 07:21:07;;;;;;;9.90;3.40;;;11.60;99.90;;;;;;4953894;28;20389;-90
2023/03/26 07:23:33;;;;;;;5.93;2.40;;;11.70;99.90;;;;;;4954184;28;20452;-90
2023/03/26 07:26:08;;;;;;;7.40;2.20;;;11.60;99.90;;;;;;4947706;28;20132;-90
2023/03/26 07:28:45;;;;;;;9.10;2.58;;;11.60;99.90;;;;;;4934492;29;20027;-91
2023/03/26 07:31:33;;;;;;;6.70;2.40;;;11.70;99.90;;;;;;4934581;29;20039;-91
2023/03/26 07:34:22;;;;;;;7.72;3.03;;;11.70;99.90;;;;;;4947003;29;20417;-89
2023/03/26 07:37:09;;;;;;;8.02;2.55;;;11.70;99.90;;;;;;4956169;28;20107;-89
2023/03/26 07:39:39;;;;;;;8.75;2.83;;;11.90;99.90;;;;;;4952787;28;20547;-88
2023/03/26 07:42:24;;;;;;;6.43;2.80;;;11.90;99.90;;;;;;4953332;29;20054;-86
2023/03/26 07:45:13;;;;;;;9.05;2.78;;;11.90;99.90;;;;;;4954485;29;20035;-95
2023/03/26 07:47:41;;;;;;;9.05;3.42;;;12.00;99.90;;;;;;4953460;28;20032;-82
2023/03/26 07:50:13;;;;;;;12.35;3.47;;;11.90;99.90;;;;;;4952935;28;20035;-81
2023/03/26 07:52:39;;;;;;;9.30;3.28;;;11.80;99.90;;;;;;4952742;28;20040;-83
2023/03/26 07:55:06;;;;;;;7.43;3.38;;;11.90;99.90;;;;;;4950040;28;20405;-86
2023/03/26 07:57:50;;;;;;;8.75;3.42;;;12.10;99.90;;;;;;4952501;28;20049;-82
2023/03/26 08:00:28;;;;;;;7.55;2.83;;;12.20;99.90;;;;;;4952587;28;20039;-91
2023/03/26 08:02:54;;;;;;;13.55;3.47;;;12.00;99.90;;;;;;4954107;28;20023;-94
2023/03/26 08:05:25;;;;;;;10.90;2.72;;;11.80;99.90;;;;;;4953754;28;20039;-94
2023/03/26 08:08:19;;;;;;;9.85;3.17;;;11.70;99.90;;;;;;4954371;28;20542;-94
2023/03/26 08:10:50;;;;;;;8.82;2.80;;;11.70;99.90;;;;;;4954092;28;20031;-94
2023/03/26 08:13:29;;;;;;;5.45;2.20;;;11.70;99.90;;;;;;4954142;29;20643;-94
2023/03/26 08:16:15;;;;;;;5.35;2.30;;;11.80;99.90;;;;;;4953903;28;20548;-94
2023/03/26 08:19:12;;;;;;;6.72;2.35;;;11.80;99.90;;;;;;4953788;28;20023;-95
2023/03/26 08:21:46;;;;;;;5.40;2.22;;;12.00;99.90;;;;;;4934411;29;20038;-96
2023/03/26 08:24:42;;;;;;;6.32;2.22;;;12.10;99.90;;;;;;4954319;28;20118;-96
2023/03/26 08:27:20;;;;;;;6.18;2.33;;;12.20;99.90;;;;;;4953177;28;20079;-94
2023/03/26 08:29:58;;;;;;;7.85;1.90;;;12.20;99.90;;;;;;4953756;28;20065;-94
2023/03/26 08:32:25;;;;;;;6.05;2.13;;;12.20;99.90;;;;;;4954036;28;20085;-92
2023/03/26 08:34:51;;;;;;;5.95;2.17;;;12.30;99.90;;;;;;4953492;28;20081;-96
2023/03/26 08:37:17;;;;;;;5.22;2.38;;;12.40;99.90;;;;;;4954441;28;20030;-94
2023/03/26 08:39:43;;;;;;;6.32;1.90;;;12.50;99.90;;;;;;4953893;28;20028;-96
2023/03/26 08:42:32;;;;;;;3.08;1.70;;;12.60;99.90;;;;;;4953396;28;20031;-95
2023/03/26 08:45:12;;;;;;;5.15;1.92;;;12.50;99.90;;;;;;4953065;29;20029;-93
2023/03/26 08:48:00;;;;;;;4.97;1.80;;;12.50;99.90;;;;;;4953674;28;20030;-94
2023/03/26 08:50:48;;;;;;;7.25;2.10;;;12.50;99.90;;;;;;4953432;28;20401;-94
2023/03/26 08:53:41;;;;;;;7.03;2.55;;;12.50;99.90;;;;;;4953456;28;20122;-93
2023/03/26 08:56:48;;;;;;;6.55;2.38;;;12.60;99.90;;;;;;4952246;28;20102;-94
2023/03/26 08:59:17;;;;;;;4.95;2.30;;;12.50;99.90;;;;;;4952534;28;20109;-95
2023/03/26 09:01:44;;;;;;;5.00;2.20;;;12.50;99.90;;;;;;4953130;28;20521;-95
2023/03/26 09:04:39;;;;;;;4.93;2.00;;;12.50;99.90;;;;;;4952767;29;20031;-96
2023/03/26 09:07:23;;;;;;;5.28;2.10;;;12.50;99.90;;;;;;4953440;28;20031;-95
2023/03/26 09:10:05;;;;;;;7.28;2.17;;;12.50;99.90;;;;;;4952092;29;20027;-94
2023/03/26 09:12:49;;;;;;;5.00;2.17;;;12.50;99.90;;;;;;4952468;28;20051;-94
2023/03/26 09:16:00;;;;;;;7.50;2.08;;;12.50;99.90;;;;;;4943969;29;20520;-95
2023/03/26 09:18:53;;;;;;;6.97;2.10;;;12.50;99.90;;;;;;5009878;28;20422;-94
2023/03/26 09:21:45;;;;;;;4.88;1.80;;;12.50;99.90;;;;;;4951758;28;20035;-96
2023/03/26 09:24:41;;;;;;;6.30;2.15;;;12.60;99.90;;;;;;4950218;28;20459;-95
2023/03/26 09:27:44;;;;;;;3.90;1.65;;;12.60;99.90;;;;;;4931987;29;20090;-95
2023/03/26 09:30:41;;;;;;;5.57;2.33;;;12.70;99.90;;;;;;4950552;29;20043;-96
2023/03/26 09:33:43;;;;;;;4.28;2.05;;;12.80;99.90;;;;;;4971917;28;20105;-93
2023/03/26 09:36:21;;;;;;;5.93;1.92;;;13.00;99.90;;;;;;4982993;28;20081;-94
2023/03/26 09:39:03;;;;;;;3.55;1.67;;;13.00;99.90;;;;;;4973751;28;20420;-95
2023/03/26 09:41:40;;;;;;;5.75;2.08;;;13.00;99.90;;;;;;4974007;28;20046;-96
2023/03/26 09:44:17;;;;;;;4.05;1.67;;;13.10;99.90;;;;;;4978639;28;20037;-96
2023/03/26 09:47:20;;;;;;;5.85;1.90;;;14.20;99.90;;;;;;4977946;28;20030;-96
2023/03/26 09:49:53;;;;;;;4.90;2.40;;;14.20;99.90;;;;;;4958779;29;20047;-96
2023/03/26 09:52:36;;;;;;;4.97;2.05;;;13.90;99.90;;;;;;4960785;29;20102;-96
2023/03/26 09:55:21;;;;;;;4.28;1.90;;;13.80;99.90;;;;;;4947942;29;20066;-96
2023/03/26 09:57:59;;;;;;;4.35;1.60;;;13.70;99.90;;;;;;4936902;29;20040;-96
2023/03/26 10:00:32;;;;;;;4.97;1.90;;;13.70;99.90;;;;;;4935847;28;20066;-95
2023/03/26 10:03:24;;;;;;;6.45;1.90;;;13.60;99.90;;;;;;4934654;29;20086;-94
2023/03/26 10:06:33;;;;;;;5.75;2.30;;;13.40;99.90;;;;;;4934451;29;20032;-96
2023/03/26 10:09:24;;;;;;;7.25;2.67;;;13.20;99.90;;;;;;4900435;29;20090;-95
2023/03/26 10:11:52;;;;;;;7.40;2.05;;;13.10;99.90;;;;;;4873275;29;20197;-96
2023/03/26 10:14:27;;;;;;;5.40;2.28;;;12.90;99.90;;;;;;4875396;29;20033;-96
2023/03/26 10:17:05;;;;;;;7.20;2.65;;;13.00;99.90;;;;;;4875335;29;20518;-96
2023/03/26 10:19:52;;;;;;;8.80;2.67;;;13.00;99.90;;;;;;4874926;29;20064;-91
2023/03/26 10:23:03;;;;;;;5.45;2.75;;;13.00;99.90;;;;;;4874171;29;20104;-91
2023/03/26 10:25:35;;;;;;;7.80;2.42;;;13.10;99.90;;;;;;4971109;28;20141;-91
2023/03/26 10:28:21;;;;;;;6.70;2.50;;;13.40;99.90;;;;;;4972029;28;20043;-91
2023/03/26 10:31:14;;;;;;;7.25;2.30;;;13.40;99.90;;;;;;4971231;28;20043;-91
2023/03/26 10:34:01;;;;;;;8.25;2.30;;;13.70;99.90;;;;;;4972763;28;20038;-91
2023/03/26 10:36:35;;;;;;;6.70;2.50;;;14.60;99.90;;;;;;4969412;28;20043;-94
2023/03/26 10:39:16;;;;;;;7.57;2.40;;;14.60;99.90;;;;;;4973458;28;20030;-96
2023/03/26 10:41:55;;;;;;;9.50;2.85;;;14.00;99.90;;;;;;4970686;28;20034;-91
2023/03/26 10:44:46;;;;;;;5.25;2.80;;;13.80;99.90;;;;;;4933050;28;20031;-90
2023/03/26 10:47:18;;;;;;;5.82;2.70;;;13.70;99.90;;;;;;4933165;28;20035;-94
2023/03/26 10:49:55;;;;;;;7.40;2.60;;;13.60;99.90;;;;;;4914193;28;20127;-91
2023/03/26 10:52:24;;;;;;;5.38;2.38;;;13.60;99.90;;;;;;4930385;28;20036;-92
2023/03/26 10:54:55;;;;;;;7.47;3.05;;;13.50;99.90;;;;;;4926720;28;20043;-93
2023/03/26 10:57:58;;;;;;;6.90;3.08;;;13.70;99.90;;;;;;4939427;28;20032;-96
2023/03/26 11:00:27;;;;;;;7.75;2.75;;;14.00;99.90;;;;;;4936357;29;20048;-96
2023/03/26 11:02:59;;;;;;;6.20;2.58;;;14.40;99.90;;;;;;4944838;28;20043;-91
2023/03/26 11:05:48;;;;;;;9.32;2.72;;;14.30;99.90;;;;;;4959407;29;20414;-96
2023/03/26 11:08:24;;;;;;;9.57;3.10;;;14.10;99.90;;;;;;4958263;28;20077;-94
2023/03/26 11:11:21;;;;;;;8.35;3.13;;;14.10;99.90;;;;;;4956459;28;20631;-95
2023/03/26 11:14:02;;;;;;;5.97;2.28;;;14.60;99.90;;;;;;4945545;28;20505;-94
2023/03/26 11:16:56;;;;;;;5.05;2.40;;;16.70;99.90;;;;;;4955864;28;20063;-95
2023/03/26 11:19:28;;;;;;;7.60;2.42;;;16.40;99.90;;;;;;4954705;29;20073;-95
2023/03/26 11:22:06;;;;;;;7.28;2.55;;;17.10;99.90;;;;;;4955577;28;20114;-96
2023/03/26 11:25:03;;;;;;;6.95;2.63;;;20.00;99.90;;;;;;4954590;28;20096;-96
2023/03/26 11:27:43;;;;;;;6.10;1.95;;;22.10;99.90;;;;;;4955275;28;20043;-96
2023/03/26 11:30:22;;;;;;;5.28;2.60;;;21.60;99.90;;;;;;4955013;28;20081;-95
2023/03/26 11:32:53;;;;;;;4.60;2.20;;;22.20;99.90;;;;;;4943378;29;20044;-95
2023/03/26 11:35:37;;;;;;;5.55;2.42;;;21.50;99.90;;;;;;4945804;28;20044;-95
2023/03/26 11:38:20;;;;;;;4.18;2.10;;;22.40;99.90;;;;;;4937190;29;20093;-95
2023/03/26 11:40:49;;;;;;;5.20;2.05;;;20.50;99.90;;;;;;4954866;28;20511;-96
2023/03/26 11:43:21;;;;;;;3.42;1.90;;;18.90;99.90;;;;;;4955086;28;20035;-96
2023/03/26 11:45:49;;;;;;;4.03;1.90;;;18.50;99.90;;;;;;4955113;28;20023;-96
2023/03/26 11:48:30;;;;;;;2.95;1.67;;;18.40;99.90;;;;;;4954973;28;20481;-96
2023/03/26 11:51:07;;;;;;;5.05;1.63;;;20.10;99.90;;;;;;4954967;29;20038;-96
2023/03/26 11:53:38;;;;;;;3.42;1.40;;;20.30;99.90;;;;;;4953077;28;20031;-96
2023/03/26 11:56:13;;;;;;;3.55;1.50;;;19.70;99.90;;;;;;4955588;28;20031;-96
2023/03/26 11:59:01;;;;;;;4.93;2.38;;;20.20;99.90;;;;;;4954641;28;20027;-94
2023/03/26 12:01:42;;;;;;;4.95;1.85;;;20.80;99.90;;;;;;4953618;29;20019;-96
2023/03/26 12:04:12;;;;;;;3.75;1.40;;;21.00;99.90;;;;;;4954295;28;20107;-95
2023/03/26 12:06:38;;;;;;;3.05;1.50;;;19.70;99.90;;;;;;4953645;28;20039;-95
2023/03/26 12:09:16;;;;;;;4.85;1.60;;;18.40;99.90;;;;;;4954003;28;20186;-95
2023/03/26 12:11:43;;;;;;;3.35;1.65;;;17.30;99.90;;;;;;4958450;29;20051;-96
2023/03/26 12:14:18;;;;;;;4.07;1.77;;;16.80;99.90;;;;;;4961409;28;20397;-96
2023/03/26 12:17:11;;;;;;;4.13;1.67;;;16.30;99.90;;;;;;4958414;28;20478;-96
2023/03/26 12:19:42;;;;;;;2.88;1.17;;;16.30;99.90;;;;;;4962048;29;20023;-96
2023/03/26 12:22:37;;;;;;;2.72;1.40;;;15.30;99.90;;;;;;4956468;29;20035;-96
2023/03/26 12:25:28;;;;;;;6.72;1.75;;;14.60;99.90;;;;;;4964046;28;20038;-96
2023/03/26 12:28:12;;;;;;;4.82;1.48;;;14.00;99.90;;;;;;4945137;28;20047;-96
2023/03/26 12:30:41;;;;;;;4.20;1.10;;;12.60;99.90;;;;;;4954305;28;20092;-96
2023/03/26 12:33:25;;;;;;;5.13;1.23;;;12.10;99.90;;;;;;4953949;28;20044;-96
2023/03/26 12:35:51;;;;;;;3.40;1.00;;;12.50;99.90;;;;;;4954146;28;20118;-96
2023/03/26 12:38:34;;;;;;;2.10;0.93;;;12.40;99.90;;;;;;4954028;28;20098;-94
2023/03/26 12:41:20;;;;;;;2.58;1.25;;;12.60;99.90;;;;;;4953149;28;20081;-94
2023/03/26 12:43:48;;;;;;;3.30;1.00;;;13.00;99.90;;;;;;4953788;28;20059;-95
2023/03/26 12:46:34;;;;;;;2.78;0.95;;;13.10;99.90;;;;;;4952923;28;20097;-94
2023/03/26 12:49:07;;;;;;;1.75;1.17;;;13.90;99.90;;;;;;4953319;28;20097;-94
2023/03/26 12:52:14;;;;;;;3.13;1.00;;;13.60;99.90;;;;;;4955948;28;20035;-96
2023/03/26 12:55:03;;;;;;;2.60;1.00;;;13.90;99.90;;;;;;4974940;28;20043;-96
2023/03/26 12:57:37;;;;;;;2.28;0.90;;;13.80;99.90;;;;;;5051715;28;20128;-96
2023/03/26 13:00:31;;;;;;;1.48;0.93;;;14.10;99.90;;;;;;5052416;28;20060;-96
2023/03/26 13:03:00;;;;;;;2.40;0.80;;;14.40;99.90;;;;;;5022729;28;20124;-95
2023/03/26 13:05:53;;;;;;;2.90;1.10;;;17.20;99.90;;;;;;5009840;28;20100;-96
2023/03/26 13:08:53;;;;;;;2.47;1.02;;;18.00;99.90;;;;;;5011266;28;20040;-96
2023/03/26 13:12:01;;;;;;;4.40;1.08;;;18.40;99.90;;;;;;5001542;28;20385;-95
2023/03/26 13:14:54;;;;;;;1.52;1.10;;;17.80;99.90;;;;;;4962890;28;20114;-95
2023/03/26 13:17:29;;;;;;;2.05;1.02;;;19.00;99.90;;;;;;4954045;29;20038;-94
2023/03/26 13:20:00;;;;;;;1.38;0.73;;;20.60;99.90;;;;;;4958645;28;20188;-96
2023/03/26 13:22:32;;;;;;;1.77;0.55;;;21.40;99.90;;;;;;4958261;29;20107;-96